Bering Gas — OWYQ2 — position and weather

sailwx.info

Track history (hours):
 
Tides and Currents Weather Stations Pressure Air Temp Water Temp Dewpoint Dewpoint Depression Visibility Wind Speed Wind Dir Waves Ship Positions

Bering Gas

Last reported at 2018-Jun-11 10:57 UTC. Time now 2018-Jun-18 00:09 UTC.
Position N 29°17' W 094°37'.

Length 160 m; draft 8.1 m.

Type: Tanker. MMSI: 219672000.

Date/timePositionNaut miles runAvg speedWind from/ knotsBaromVisibWave heightAir tempDewpointWater temp
2018-Jun-11 10:57N 29°17' W 094°37'510.4
2018-Jun-11 10:26N 29°20' W 094°42'512.2
2018-Jun-11 10:00N 29°22' W 094°48'510.9
2018-Jun-11 09:30N 29°26' W 094°50'610.8
2018-Jun-11 08:59N 29°31' W 094°53'611.5
2018-Jun-11 08:29N 29°36' W 094°57'510.2
2018-Jun-11 08:00N 29°41' W 094°59'4 8.9
2018-Jun-11 07:30N 29°44' W 095°03'2 0.1
2018-Jun-09 23:13N 29°45' W 095°04'3 7.4
2018-Jun-09 22:48N 29°43' W 095°01'3 9.0
2018-Jun-09 22:30N 29°41' W 094°59'611.4
2018-Jun-09 21:59N 29°36' W 094°57'26 1.4
2018-Jun-09 03:22N 29°15' W 094°39'0 0.0
2018-Jun-09 02:55N 29°15' W 094°39'0 0.0
2018-Jun-09 01:49N 29°15' W 094°39'0 0.0
2018-Jun-09 01:25N 29°15' W 094°39'0 0.0
2018-Jun-09 00:57N 29°15' W 094°39'0 0.0
2018-Jun-09 00:21N 29°15' W 094°39'0 0.0
2018-Jun-09 00:00N 29°15' W 094°39'0 0.0
2018-Jun-08 23:27N 29°15' W 094°39'0 0.0
2018-Jun-08 21:40N 29°15' W 094°39'0 0.1
2018-Jun-08 21:30N 29°15' W 094°39'0 0.0
2018-Jun-08 20:27N 29°15' W 094°39'0 0.0
2018-Jun-08 15:01N 29°15' W 094°39'1 4.0
2018-Jun-08 14:53N 29°15' W 094°40'3 8.5
2018-Jun-08 14:30N 29°12' W 094°39'611.2
2018-Jun-08 14:00N 29°07' W 094°36'2010.5
2018-Jun-08 12:08N 28°50' W 094°24'311.7
2018-Jun-08 11:51N 28°47' W 094°24'412.5
2018-Jun-08 11:30N 28°43' W 094°24'712.3
2018-Jun-08 10:56N 28°36' W 094°24'712.2
2018-Jun-08 10:23N 28°29' W 094°24'  
2018-Jun-03 03:22N 20°03' W 095°50'613.1
2018-Jun-03 02:56N 19°58' W 095°47'2812.8
2018-Jun-03 00:43N 19°35' W 095°29'512.7
2018-Jun-03 00:19N 19°31' W 095°26'512.8
2018-Jun-02 23:57N 19°28' W 095°23'3212.7
2018-Jun-02 21:23N 19°02' W 095°02'  
Track history (hours):
 
Tides and Currents Weather Stations Pressure Air Temp Water Temp Dewpoint Dewpoint Depression Visibility Wind Speed Wind Dir Waves Ship Positions

Bering Gas

Last reported at 2018-Jun-11 10:57 UTC. Time now 2018-Jun-18 00:09 UTC.
Position N 29°17' W 094°37'.

Length 160 m; draft 8.1 m.

Type: Tanker. MMSI: 219672000.

Date/timePositionNaut miles runAvg speedWind from/ knotsBaromVisibWave heightAir tempDewpointWater temp
2018-Jun-11 10:57N 29°17' W 094°37'510.4
2018-Jun-11 10:26N 29°20' W 094°42'512.2
2018-Jun-11 10:00N 29°22' W 094°48'510.9
2018-Jun-11 09:30N 29°26' W 094°50'610.8
2018-Jun-11 08:59N 29°31' W 094°53'611.5
2018-Jun-11 08:29N 29°36' W 094°57'510.2
2018-Jun-11 08:00N 29°41' W 094°59'4 8.9
2018-Jun-11 07:30N 29°44' W 095°03'2 0.1
2018-Jun-09 23:13N 29°45' W 095°04'3 7.4
2018-Jun-09 22:48N 29°43' W 095°01'3 9.0
2018-Jun-09 22:30N 29°41' W 094°59'611.4
2018-Jun-09 21:59N 29°36' W 094°57'26 1.4
2018-Jun-09 03:22N 29°15' W 094°39'0 0.0
2018-Jun-09 02:55N 29°15' W 094°39'0 0.0
2018-Jun-09 01:49N 29°15' W 094°39'0 0.0
2018-Jun-09 01:25N 29°15' W 094°39'0 0.0
2018-Jun-09 00:57N 29°15' W 094°39'0 0.0
2018-Jun-09 00:21N 29°15' W 094°39'0 0.0
2018-Jun-09 00:00N 29°15' W 094°39'0 0.0
2018-Jun-08 23:27N 29°15' W 094°39'0 0.0
2018-Jun-08 21:40N 29°15' W 094°39'0 0.1
2018-Jun-08 21:30N 29°15' W 094°39'0 0.0
2018-Jun-08 20:27N 29°15' W 094°39'0 0.0
2018-Jun-08 15:01N 29°15' W 094°39'1 4.0
2018-Jun-08 14:53N 29°15' W 094°40'3 8.5
2018-Jun-08 14:30N 29°12' W 094°39'611.2
2018-Jun-08 14:00N 29°07' W 094°36'2010.5
2018-Jun-08 12:08N 28°50' W 094°24'311.7
2018-Jun-08 11:51N 28°47' W 094°24'412.5
2018-Jun-08 11:30N 28°43' W 094°24'712.3
2018-Jun-08 10:56N 28°36' W 094°24'712.2
2018-Jun-08 10:23N 28°29' W 094°24'  
2018-Jun-03 03:22N 20°03' W 095°50'613.1
2018-Jun-03 02:56N 19°58' W 095°47'2812.8
2018-Jun-03 00:43N 19°35' W 095°29'512.7
2018-Jun-03 00:19N 19°31' W 095°26'512.8
2018-Jun-02 23:57N 19°28' W 095°23'3212.7
2018-Jun-02 21:23N 19°02' W 095°02'  

Dump ship's entire track history